createdAt,value
2023-05-14T00:00:42.442Z,6.65
2023-05-14T00:03:10.365Z,6.75
2023-05-14T00:05:39.494Z,5.57
2023-05-14T00:08:07.558Z,9.63
2023-05-14T00:10:35.263Z,8.38
2023-05-14T00:13:02.960Z,5.15
2023-05-14T00:15:32.325Z,5.78
2023-05-14T00:18:02.002Z,6.40
2023-05-14T00:20:29.829Z,7.72
2023-05-14T00:22:58.879Z,5.35
2023-05-14T00:25:26.554Z,7.47
2023-05-14T00:27:54.161Z,5.70
2023-05-14T00:30:21.965Z,6.05
2023-05-14T00:32:49.997Z,6.63
2023-05-14T00:35:17.639Z,6.38
2023-05-14T00:37:45.371Z,7.53
2023-05-14T00:40:14.740Z,7.40
2023-05-14T00:42:42.364Z,5.57
2023-05-14T00:45:10.916Z,8.07
2023-05-14T00:47:40.487Z,6.32
2023-05-14T00:50:09.425Z,7.43
2023-05-14T00:52:38.029Z,5.82
2023-05-14T00:55:07.662Z,6.75
2023-05-14T00:57:37.832Z,8.13
2023-05-14T01:00:06.770Z,5.85
2023-05-14T01:02:34.969Z,7.22
2023-05-14T01:05:03.616Z,7.82
2023-05-14T01:07:34.661Z,7.60
2023-05-14T01:10:08.399Z,8.20
2023-05-14T01:12:44.232Z,6.90
2023-05-14T01:15:13.647Z,5.90
2023-05-14T01:17:47.207Z,6.30
2023-05-14T01:20:15.525Z,5.97
2023-05-14T01:22:44.887Z,8.00
2023-05-14T01:25:12.950Z,7.22
2023-05-14T01:27:47.935Z,6.28
2023-05-14T01:30:22.303Z,6.25
2023-05-14T01:32:54.917Z,11.05
2023-05-14T01:35:27.210Z,5.70
2023-05-14T01:37:58.799Z,5.95
2023-05-14T01:40:27.760Z,6.82
2023-05-14T01:42:56.449Z,6.55
2023-05-14T01:45:25.139Z,7.38
2023-05-14T01:47:53.082Z,7.35
2023-05-14T01:50:21.274Z,7.25
2023-05-14T01:52:49.443Z,5.60
2023-05-14T01:55:19.222Z,7.43
2023-05-14T01:57:46.950Z,7.38
2023-05-14T02:00:15.117Z,8.57
2023-05-14T02:02:42.724Z,7.25
2023-05-14T02:05:13.367Z,7.10
2023-05-14T02:07:41.310Z,7.90
2023-05-14T02:10:11.247Z,6.65
2023-05-14T02:12:40.234Z,5.65
2023-05-14T02:15:10.945Z,5.93
2023-05-14T02:17:38.909Z,5.88
2023-05-14T02:20:07.998Z,6.80
2023-05-14T02:22:35.633Z,5.93
2023-05-14T02:25:03.264Z,6.53
2023-05-14T02:27:30.848Z,7.22
2023-05-14T02:30:00.911Z,6.00
2023-05-14T02:32:28.911Z,6.25
2023-05-14T02:34:56.537Z,6.05
2023-05-14T02:37:24.136Z,6.35
2023-05-14T02:39:53.349Z,6.43
2023-05-14T02:42:23.641Z,6.30
2023-05-14T02:44:52.838Z,6.38
2023-05-14T02:47:21.964Z,6.65
2023-05-14T02:49:49.937Z,9.07
2023-05-14T02:52:17.506Z,6.53
2023-05-14T02:54:45.119Z,6.00
2023-05-14T02:57:13.486Z,6.40
2023-05-14T02:59:41.438Z,6.63
2023-05-14T03:02:09.600Z,7.95
2023-05-14T03:04:39.189Z,6.68
2023-05-14T03:07:07.016Z,7.07
2023-05-14T03:09:36.005Z,6.47
2023-05-14T03:12:05.317Z,6.75
2023-05-14T03:14:32.991Z,6.25
2023-05-14T03:17:00.683Z,6.32
2023-05-14T03:19:28.304Z,6.70
2023-05-14T03:21:57.456Z,6.40
2023-05-14T03:24:25.057Z,6.70
2023-05-14T03:26:53.383Z,6.88
2023-05-14T03:29:21.002Z,6.30
2023-05-14T03:31:49.939Z,6.53
2023-05-14T03:34:17.629Z,7.20
2023-05-14T03:36:45.245Z,8.00
2023-05-14T03:39:15.481Z,11.52
2023-05-14T03:41:43.105Z,8.15
2023-05-14T03:44:10.732Z,8.00
2023-05-14T03:46:38.335Z,7.53
2023-05-14T03:49:07.312Z,8.00
2023-05-14T03:51:35.738Z,6.93
2023-05-14T03:54:05.958Z,7.75
2023-05-14T03:56:35.105Z,8.55
2023-05-14T03:59:03.982Z,7.50
2023-05-14T04:01:32.964Z,8.90
2023-05-14T04:04:00.768Z,9.38
2023-05-14T04:06:28.963Z,9.38
2023-05-14T04:08:56.569Z,7.80
2023-05-14T04:11:24.265Z,8.27
2023-05-14T04:13:53.234Z,8.45
2023-05-14T04:16:20.983Z,9.82
2023-05-14T04:18:49.135Z,7.75
2023-05-14T04:21:16.853Z,7.22
2023-05-14T04:23:44.484Z,7.85
2023-05-14T04:26:12.172Z,7.72
2023-05-14T04:28:40.502Z,7.70
2023-05-14T04:31:09.581Z,8.00
2023-05-14T04:33:37.221Z,8.38
2023-05-14T04:36:05.752Z,7.57
2023-05-14T04:38:33.390Z,8.00
2023-05-14T04:41:01.136Z,7.25
2023-05-14T04:43:28.775Z,8.60
2023-05-14T04:45:56.413Z,7.43
2023-05-14T04:48:25.427Z,7.20
2023-05-14T04:50:53.214Z,8.55
2023-05-14T04:53:20.843Z,7.32
2023-05-14T04:55:48.480Z,7.82
2023-05-14T04:58:16.104Z,8.45
2023-05-14T05:00:43.803Z,7.78
2023-05-14T05:03:11.485Z,7.80
2023-05-14T05:05:40.695Z,7.22
2023-05-14T05:08:08.354Z,8.23
2023-05-14T05:10:35.960Z,7.68
2023-05-14T05:13:03.564Z,7.90
2023-05-14T05:15:31.111Z,7.72
2023-05-14T05:17:58.790Z,7.30
2023-05-14T05:20:28.054Z,20.08
2023-05-14T05:22:57.024Z,8.02
2023-05-14T05:25:24.599Z,7.63
2023-05-14T05:27:52.215Z,8.88
2023-05-14T05:30:19.882Z,10.05
2023-05-14T05:32:47.581Z,7.00
2023-05-14T05:35:15.194Z,6.82
2023-05-14T05:37:45.161Z,8.65
2023-05-14T05:40:15.023Z,6.75
2023-05-14T05:42:42.716Z,7.53
2023-05-14T05:45:11.129Z,7.03
2023-05-14T05:47:38.826Z,7.53
2023-05-14T05:50:08.043Z,6.60
2023-05-14T05:52:35.824Z,6.78
2023-05-14T05:55:03.706Z,7.05
2023-05-14T05:57:32.678Z,6.57
2023-05-14T06:00:00.276Z,6.85
2023-05-14T06:02:27.950Z,7.60
2023-05-14T06:04:55.702Z,7.35
2023-05-14T06:07:23.347Z,8.10
2023-05-14T06:09:50.902Z,9.63
2023-05-14T06:12:18.511Z,6.88
2023-05-14T06:14:48.044Z,8.43
2023-05-14T06:17:15.739Z,7.68
2023-05-14T06:19:43.333Z,8.60
2023-05-14T06:22:10.918Z,7.00
2023-05-14T06:24:38.589Z,7.10
2023-05-14T06:27:06.563Z,6.80
2023-05-14T06:29:34.220Z,7.43
2023-05-14T06:32:04.656Z,9.88
2023-05-14T06:34:32.342Z,7.13
2023-05-14T06:37:00.315Z,7.68
2023-05-14T06:39:27.990Z,7.32
2023-05-14T06:41:55.591Z,6.78
2023-05-14T06:44:25.054Z,7.55
2023-05-14T06:46:52.732Z,8.02
2023-05-14T06:49:22.108Z,7.80
2023-05-14T06:51:49.918Z,8.38
2023-05-14T06:54:17.680Z,8.68
2023-05-14T06:56:45.355Z,6.43
2023-05-14T06:59:13.037Z,7.18
2023-05-14T07:01:40.981Z,5.85
2023-05-14T07:04:08.746Z,6.30
2023-05-14T07:06:37.742Z,5.68
2023-05-14T07:09:06.776Z,5.88
2023-05-14T07:11:34.920Z,5.35
2023-05-14T07:14:02.479Z,6.80
2023-05-14T07:16:30.138Z,5.95
2023-05-14T07:18:57.934Z,5.63
2023-05-14T07:21:26.094Z,15.13
2023-05-14T07:23:55.055Z,6.78
2023-05-14T07:26:24.373Z,5.03
2023-05-14T07:28:52.103Z,4.63
2023-05-14T07:31:19.728Z,4.88
2023-05-14T07:33:47.483Z,4.47
2023-05-14T07:36:15.254Z,4.30
2023-05-14T07:38:42.911Z,5.43
2023-05-14T07:41:12.191Z,4.30
2023-05-14T07:43:40.516Z,5.40
2023-05-14T07:46:08.138Z,5.35
2023-05-14T07:48:35.781Z,5.38
2023-05-14T07:51:03.461Z,4.40
2023-05-14T07:53:31.072Z,4.68
2023-05-14T07:55:59.969Z,4.30
2023-05-14T07:58:29.774Z,4.05
2023-05-14T08:00:57.671Z,4.28
2023-05-14T08:03:25.678Z,4.00
2023-05-14T08:05:53.400Z,3.95
2023-05-14T08:08:21.003Z,4.57
2023-05-14T08:10:48.673Z,4.47
2023-05-14T08:13:16.282Z,4.03
2023-05-14T08:15:45.691Z,4.20
2023-05-14T08:18:13.492Z,3.85
2023-05-14T08:20:41.254Z,3.78
2023-05-14T08:23:09.453Z,3.63
2023-05-14T08:25:37.121Z,4.50
2023-05-14T08:28:04.993Z,3.75
2023-05-14T08:30:32.680Z,5.85
2023-05-14T08:33:01.796Z,6.10
2023-05-14T08:35:29.425Z,4.57
2023-05-14T08:37:57.844Z,3.75
2023-05-14T08:40:25.940Z,6.03
2023-05-14T08:42:55.257Z,3.88
2023-05-14T08:45:29.792Z,4.53
2023-05-14T08:47:59.278Z,3.92
2023-05-14T08:50:30.254Z,4.38
2023-05-14T08:52:58.375Z,4.70
2023-05-14T08:55:27.668Z,5.55
2023-05-14T08:57:56.121Z,8.13
2023-05-14T09:00:24.966Z,5.93
2023-05-14T09:02:54.042Z,4.88
2023-05-14T09:05:23.040Z,5.78
2023-05-14T09:07:52.655Z,4.15
2023-05-14T09:10:21.123Z,6.40
2023-05-14T09:12:48.925Z,4.30
2023-05-14T09:15:16.591Z,6.25
2023-05-14T09:17:44.856Z,5.10
2023-05-14T09:20:13.910Z,4.00
2023-05-14T09:22:41.685Z,4.80
2023-05-14T09:25:12.401Z,6.78
2023-05-14T09:27:40.209Z,4.03
2023-05-14T09:30:10.010Z,4.60
2023-05-14T09:32:39.124Z,3.80
2023-05-14T09:35:18.121Z,6.25
2023-05-14T09:37:47.399Z,7.20
2023-05-14T09:40:18.212Z,3.90
2023-05-14T09:42:46.218Z,3.42
2023-05-14T09:45:13.931Z,3.45
2023-05-14T09:47:41.814Z,5.20
2023-05-14T09:50:09.749Z,4.90
2023-05-14T09:52:40.164Z,6.22
2023-05-14T09:55:09.046Z,4.80
2023-05-14T09:57:38.127Z,3.33
2023-05-14T10:00:06.847Z,3.65
2023-05-14T10:02:38.207Z,4.68
2023-05-14T10:05:07.838Z,4.45
2023-05-14T10:07:41.452Z,4.90
2023-05-14T10:10:13.368Z,3.33
2023-05-14T10:12:42.498Z,3.95
2023-05-14T10:15:17.310Z,6.80
2023-05-14T10:17:49.625Z,4.95
2023-05-14T10:20:17.911Z,3.42
2023-05-14T10:22:45.719Z,6.25
2023-05-14T10:25:13.925Z,4.85
2023-05-14T10:27:43.446Z,7.05
2023-05-14T10:30:14.258Z,5.00
2023-05-14T10:32:44.014Z,3.65
2023-05-14T10:35:20.315Z,4.65
2023-05-14T10:37:48.042Z,5.82
2023-05-14T10:40:15.714Z,4.53
2023-05-14T10:42:44.830Z,6.05
2023-05-14T10:45:13.871Z,4.03
2023-05-14T10:47:43.762Z,4.10
2023-05-14T10:50:13.018Z,3.00
2023-05-14T10:52:42.651Z,4.80
2023-05-14T10:55:13.717Z,3.85
2023-05-14T10:57:45.576Z,3.70
2023-05-14T11:00:15.060Z,2.97
2023-05-14T11:02:44.456Z,3.78
2023-05-14T11:05:15.612Z,6.95
2023-05-14T11:07:44.867Z,3.17
2023-05-14T11:10:14.544Z,5.25
2023-05-14T11:12:44.822Z,3.30
2023-05-14T11:15:14.220Z,4.30
2023-05-14T11:17:43.657Z,4.15
2023-05-14T11:20:12.631Z,4.13
2023-05-14T11:22:41.747Z,3.90
2023-05-14T11:25:10.760Z,3.45
2023-05-14T11:27:39.842Z,3.88
2023-05-14T11:30:14.364Z,3.80
2023-05-14T11:32:42.323Z,3.65
2023-05-14T11:35:10.389Z,3.45
2023-05-14T11:37:38.122Z,3.67
2023-05-14T11:40:09.793Z,3.55
2023-05-14T11:42:38.096Z,3.42
2023-05-14T11:45:06.989Z,8.13
2023-05-14T11:47:35.947Z,4.88
2023-05-14T11:50:04.050Z,5.13
2023-05-14T11:52:31.728Z,5.30
2023-05-14T11:54:59.366Z,6.70
2023-05-14T11:57:27.075Z,3.55
2023-05-14T11:59:57.632Z,3.45
2023-05-14T12:02:28.281Z,5.18
2023-05-14T12:04:58.280Z,4.55
2023-05-14T12:07:30.307Z,4.72
2023-05-14T12:10:02.299Z,5.40
2023-05-14T12:12:36.496Z,4.20
2023-05-14T12:15:12.265Z,5.20
2023-05-14T12:17:40.443Z,4.18
2023-05-14T12:20:12.419Z,4.68
2023-05-14T12:22:43.894Z,5.18
2023-05-14T12:25:14.176Z,5.30
2023-05-14T12:27:42.250Z,4.35
2023-05-14T12:30:21.255Z,3.88
2023-05-14T12:32:51.599Z,3.80
2023-05-14T12:35:22.460Z,3.50
2023-05-14T12:37:50.696Z,5.03
2023-05-14T12:40:18.524Z,5.13
2023-05-14T12:42:46.290Z,4.43
2023-05-14T12:45:13.856Z,6.28
2023-05-14T12:47:41.526Z,5.47
2023-05-14T12:50:09.923Z,4.40
2023-05-14T12:52:39.922Z,5.70
2023-05-14T12:55:08.850Z,4.40
2023-05-14T12:57:36.621Z,4.25
2023-05-14T13:00:06.794Z,4.72
2023-05-14T13:02:42.618Z,6.15
2023-05-14T13:05:11.532Z,5.70
2023-05-14T13:07:40.616Z,4.07
2023-05-14T13:10:09.295Z,6.30
2023-05-14T13:12:36.986Z,4.43
2023-05-14T13:15:05.321Z,6.88
2023-05-14T13:17:33.075Z,3.88
2023-05-14T13:20:00.735Z,4.32
2023-05-14T13:22:28.348Z,3.78
2023-05-14T13:24:57.334Z,3.67
2023-05-14T13:27:24.998Z,3.78
2023-05-14T13:29:52.769Z,3.35
2023-05-14T13:32:20.405Z,4.57
2023-05-14T13:34:48.012Z,5.00
2023-05-14T13:37:15.651Z,3.67
2023-05-14T13:39:43.269Z,4.85
2023-05-14T13:42:12.241Z,4.43
2023-05-14T13:44:40.216Z,6.15
2023-05-14T13:47:08.533Z,4.00
2023-05-14T13:49:36.344Z,7.53
2023-05-14T13:52:04.211Z,5.70
2023-05-14T13:54:31.892Z,4.25
2023-05-14T13:56:59.551Z,4.43
2023-05-14T13:59:28.793Z,3.78
2023-05-14T14:01:56.466Z,5.50
2023-05-14T14:04:25.634Z,4.75
2023-05-14T14:06:53.297Z,4.10
2023-05-14T14:09:21.201Z,4.45
2023-05-14T14:11:49.267Z,5.10
2023-05-14T14:14:17.340Z,4.95
2023-05-14T14:16:46.404Z,3.78
2023-05-14T14:19:16.158Z,4.35
2023-05-14T14:21:44.832Z,4.90
2023-05-14T14:24:12.474Z,3.15
2023-05-14T14:26:40.256Z,4.75
2023-05-14T14:29:07.890Z,3.75
2023-05-14T14:31:37.084Z,5.95
2023-05-14T14:34:06.333Z,5.57
2023-05-14T14:36:34.009Z,5.40
2023-05-14T14:39:01.656Z,9.60
2023-05-14T14:41:29.336Z,5.32
2023-05-14T14:43:57.333Z,6.22
2023-05-14T14:46:25.111Z,5.15
2023-05-14T14:48:52.828Z,3.95
2023-05-14T14:51:21.849Z,3.88
2023-05-14T14:53:52.104Z,3.08
2023-05-14T14:56:20.097Z,3.53
2023-05-14T14:58:47.805Z,4.50
2023-05-14T15:01:15.855Z,6.40
2023-05-14T15:03:45.553Z,4.68
2023-05-14T15:06:13.293Z,3.63
2023-05-14T15:08:42.264Z,3.22
2023-05-14T15:11:10.114Z,3.28
2023-05-14T15:13:37.765Z,5.55
2023-05-14T15:16:05.585Z,4.05
2023-05-14T15:18:34.423Z,3.63
2023-05-14T15:21:02.152Z,3.95
2023-05-14T15:23:29.757Z,3.42
2023-05-14T15:25:58.716Z,3.95
2023-05-14T15:28:26.427Z,4.38
2023-05-14T15:30:54.701Z,3.08
2023-05-14T15:33:22.444Z,3.70
2023-05-14T15:35:50.106Z,3.22
2023-05-14T15:38:17.775Z,3.08
2023-05-14T15:40:45.422Z,4.22
2023-05-14T15:43:14.405Z,3.22
2023-05-14T15:45:42.027Z,3.65
2023-05-14T15:48:09.680Z,4.15
2023-05-14T15:50:38.379Z,3.30
2023-05-14T15:53:06.178Z,5.10
2023-05-14T15:55:33.826Z,3.03
2023-05-14T15:58:01.491Z,3.30
2023-05-14T16:00:30.593Z,4.13
2023-05-14T16:03:00.412Z,3.88
2023-05-14T16:05:28.174Z,3.72
2023-05-14T16:07:55.795Z,4.43
2023-05-14T16:10:23.687Z,3.30
2023-05-14T16:12:51.666Z,4.65
2023-05-14T16:15:19.346Z,3.28
2023-05-14T16:17:48.407Z,3.25
2023-05-14T16:20:16.572Z,3.17
2023-05-14T16:22:44.734Z,4.45
2023-05-14T16:25:12.372Z,3.40
2023-05-14T16:27:40.034Z,3.65
2023-05-14T16:30:08.938Z,3.45
2023-05-14T16:32:36.659Z,4.93
2023-05-14T16:35:06.309Z,4.72
2023-05-14T16:37:33.952Z,5.68
2023-05-14T16:40:01.623Z,4.78
2023-05-14T16:42:29.234Z,4.40
2023-05-14T16:44:56.943Z,4.38
2023-05-14T16:47:24.610Z,5.22
2023-05-14T16:49:52.260Z,3.97
2023-05-14T16:52:21.195Z,5.10
2023-05-14T16:54:48.914Z,4.55
2023-05-14T16:57:16.666Z,3.47
2023-05-14T16:59:44.254Z,3.80
2023-05-14T17:02:11.809Z,4.15
2023-05-14T17:04:42.022Z,6.65
2023-05-14T17:07:09.821Z,3.70
2023-05-14T17:09:38.926Z,4.45
2023-05-14T17:12:07.333Z,6.18
2023-05-14T17:14:34.954Z,5.63
2023-05-14T17:17:03.011Z,5.20
2023-05-14T17:19:30.736Z,7.57
2023-05-14T17:21:58.737Z,5.78
2023-05-14T17:24:26.318Z,4.22
2023-05-14T17:26:55.305Z,5.90
2023-05-14T17:29:22.978Z,4.18
2023-05-14T17:31:50.817Z,7.03
2023-05-14T17:34:18.599Z,5.15
2023-05-14T17:36:46.596Z,4.03
2023-05-14T17:39:14.204Z,5.53
2023-05-14T17:41:42.704Z,7.47
2023-05-14T17:44:13.144Z,5.47
2023-05-14T17:46:41.575Z,4.03
2023-05-14T17:49:09.305Z,3.75
2023-05-14T17:51:36.913Z,4.22
2023-05-14T17:54:04.903Z,4.15
2023-05-14T17:56:32.660Z,5.60
2023-05-14T17:59:00.738Z,4.07
2023-05-14T18:01:29.806Z,6.38
2023-05-14T18:03:57.826Z,5.50
2023-05-14T18:06:25.829Z,7.47
2023-05-14T18:08:53.495Z,4.53
2023-05-14T18:11:21.338Z,4.55
2023-05-14T18:13:48.888Z,7.07
2023-05-14T18:16:16.746Z,6.90
2023-05-14T18:18:45.888Z,7.28
2023-05-14T18:21:13.552Z,7.40
2023-05-14T18:23:41.236Z,7.13
2023-05-14T18:26:09.044Z,5.13
2023-05-14T18:28:37.609Z,4.63
2023-05-14T18:31:05.292Z,4.32
2023-05-14T18:33:33.169Z,3.97
2023-05-14T18:36:02.530Z,6.18
2023-05-14T18:38:30.195Z,6.72
2023-05-14T18:40:57.879Z,4.35
2023-05-14T18:43:26.224Z,4.07
2023-05-14T18:45:54.841Z,5.65
2023-05-14T18:48:23.103Z,6.45
2023-05-14T18:50:51.051Z,4.93
2023-05-14T18:53:20.084Z,5.00
2023-05-14T18:55:47.783Z,6.30
2023-05-14T18:58:15.589Z,4.70
2023-05-14T19:00:43.244Z,3.95
2023-05-14T19:03:11.052Z,4.35
2023-05-14T19:05:38.970Z,4.55
2023-05-14T19:08:06.915Z,5.45
2023-05-14T19:10:35.929Z,3.80
2023-05-14T19:13:03.649Z,4.13
2023-05-14T19:15:32.329Z,4.90
2023-05-14T19:18:00.015Z,7.25
2023-05-14T19:20:27.711Z,6.40
2023-05-14T19:22:55.383Z,7.47
2023-05-14T19:25:23.071Z,5.82
2023-05-14T19:27:53.626Z,5.38
2023-05-14T19:30:22.757Z,6.75
2023-05-14T19:32:50.517Z,4.97
2023-05-14T19:35:18.327Z,4.70
2023-05-14T19:37:47.092Z,10.68
2023-05-14T19:40:14.816Z,9.02
2023-05-14T19:42:42.442Z,7.45
2023-05-14T19:45:13.010Z,9.60
2023-05-14T19:47:41.558Z,9.27
2023-05-14T19:50:10.190Z,7.88
2023-05-14T19:52:37.960Z,10.45
2023-05-14T19:55:06.297Z,7.95
2023-05-14T19:57:33.944Z,8.40
2023-05-14T20:00:01.592Z,9.70
2023-05-14T20:02:32.116Z,9.65
2023-05-14T20:04:59.793Z,8.38
2023-05-14T20:07:27.446Z,8.85
2023-05-14T20:09:55.117Z,8.70
2023-05-14T20:12:22.778Z,6.50
2023-05-14T20:14:50.750Z,6.65
2023-05-14T20:17:18.539Z,8.45
2023-05-14T20:19:47.649Z,7.28
2023-05-14T20:22:16.120Z,5.80
2023-05-14T20:24:44.005Z,7.00
2023-05-14T20:27:11.916Z,8.88
2023-05-14T20:29:39.713Z,5.18
2023-05-14T20:32:08.303Z,7.57
2023-05-14T20:34:35.955Z,5.20
2023-05-14T20:37:05.334Z,4.88
2023-05-14T20:39:32.960Z,6.15
2023-05-14T20:42:00.642Z,6.90
2023-05-14T20:44:28.254Z,5.22
2023-05-14T20:46:56.150Z,6.45
2023-05-14T20:49:23.931Z,5.10
2023-05-14T20:51:51.726Z,7.40
2023-05-14T20:54:20.896Z,5.90
2023-05-14T20:56:48.645Z,5.68
2023-05-14T20:59:16.302Z,5.05
2023-05-14T21:01:43.908Z,9.18
2023-05-14T21:04:11.694Z,6.15
2023-05-14T21:06:39.630Z,5.50
2023-05-14T21:09:07.349Z,5.68
2023-05-14T21:11:36.388Z,6.00
2023-05-14T21:14:04.091Z,5.10
2023-05-14T21:16:32.165Z,5.15
2023-05-14T21:18:59.879Z,6.15
2023-05-14T21:21:27.547Z,5.53
2023-05-14T21:23:55.099Z,5.28
2023-05-14T21:26:23.117Z,5.22
2023-05-14T21:28:52.681Z,6.20
2023-05-14T21:31:20.292Z,5.88
2023-05-14T21:33:48.079Z,7.88
2023-05-14T21:36:16.098Z,4.68
2023-05-14T21:38:44.108Z,7.70
2023-05-14T21:41:11.695Z,5.43
2023-05-14T21:43:40.567Z,5.72
2023-05-14T21:46:10.261Z,9.52
2023-05-14T21:48:37.984Z,6.57
2023-05-14T21:51:06.291Z,6.93
2023-05-14T21:53:36.938Z,6.65
2023-05-14T21:56:08.312Z,9.38
2023-05-14T21:58:36.526Z,9.70
2023-05-14T22:01:04.640Z,9.20
2023-05-14T22:03:33.816Z,9.82
2023-05-14T22:06:01.646Z,8.68
2023-05-14T22:08:30.701Z,9.88
2023-05-14T22:10:58.387Z,12.13
2023-05-14T22:13:26.039Z,6.95
2023-05-14T22:16:01.447Z,7.03
2023-05-14T22:18:38.079Z,8.77
2023-05-14T22:21:06.992Z,9.02
2023-05-14T22:23:34.621Z,6.28
2023-05-14T22:26:02.330Z,7.25
2023-05-14T22:28:29.913Z,11.05
2023-05-14T22:30:59.608Z,8.23
2023-05-14T22:33:27.399Z,8.75
2023-05-14T22:35:56.453Z,8.00
2023-05-14T22:38:24.064Z,7.10
2023-05-14T22:40:51.618Z,7.90
2023-05-14T22:43:19.234Z,6.85
2023-05-14T22:45:47.029Z,7.38
2023-05-14T22:48:14.680Z,6.65
2023-05-14T22:50:42.290Z,7.35
2023-05-14T22:53:11.300Z,6.55
2023-05-14T22:55:38.873Z,9.30
2023-05-14T22:58:06.539Z,6.35
2023-05-14T23:00:34.196Z,7.18
2023-05-14T23:03:02.080Z,9.15
2023-05-14T23:05:29.850Z,7.03
2023-05-14T23:07:57.426Z,8.25
2023-05-14T23:10:26.407Z,8.18
2023-05-14T23:12:54.005Z,7.18
2023-05-14T23:15:21.661Z,10.32
2023-05-14T23:17:49.339Z,7.05
2023-05-14T23:20:17.128Z,11.07
2023-05-14T23:22:44.825Z,8.10
2023-05-14T23:25:15.946Z,6.68
2023-05-14T23:27:44.897Z,8.00
2023-05-14T23:30:13.336Z,8.27
2023-05-14T23:32:41.018Z,8.32
2023-05-14T23:35:09.386Z,8.27
2023-05-14T23:37:41.636Z,6.57
2023-05-14T23:40:10.437Z,10.30
2023-05-14T23:42:38.011Z,8.10
2023-05-14T23:45:08.346Z,7.30
2023-05-14T23:47:36.301Z,8.55
2023-05-14T23:50:04.633Z,7.00
2023-05-14T23:52:32.377Z,7.38
2023-05-14T23:55:00.095Z,9.27
2023-05-14T23:57:28.097Z,9.18
2023-05-14T23:59:55.687Z,7.18
